createdAt,value
2023-01-02T00:01:06.337Z,99.90
2023-01-02T00:03:33.750Z,99.90
2023-01-02T00:06:04.718Z,99.90
2023-01-02T00:08:31.864Z,99.90
2023-01-02T00:10:58.971Z,99.90
2023-01-02T00:13:26.222Z,99.90
2023-01-02T00:15:53.723Z,99.90
2023-01-02T00:18:21.169Z,99.90
2023-01-02T00:20:48.286Z,99.90
2023-01-02T00:23:15.664Z,99.90
2023-01-02T00:25:43.119Z,99.90
2023-01-02T00:28:10.164Z,99.90
2023-01-02T00:30:40.108Z,99.90
2023-01-02T00:33:07.515Z,99.90
2023-01-02T00:35:37.203Z,99.90
2023-01-02T00:38:04.980Z,99.90
2023-01-02T00:40:32.058Z,99.90
2023-01-02T00:42:59.118Z,99.90
2023-01-02T00:45:26.629Z,99.90
2023-01-02T00:47:53.724Z,99.90
2023-01-02T00:50:21.775Z,99.90
2023-01-02T00:52:49.057Z,99.90
2023-01-02T00:55:16.323Z,99.90
2023-01-02T00:57:43.510Z,99.90
2023-01-02T01:00:11.288Z,99.90
2023-01-02T01:02:38.829Z,99.90
2023-01-02T01:05:06.640Z,99.90
2023-01-02T01:07:33.815Z,99.90
2023-01-02T01:10:01.049Z,99.90
2023-01-02T01:12:28.198Z,99.90
2023-01-02T01:14:55.447Z,99.90
2023-01-02T01:17:22.532Z,99.90
2023-01-02T01:19:49.744Z,99.90
2023-01-02T01:22:16.850Z,99.90
2023-01-02T01:24:44.136Z,99.90
2023-01-02T01:27:12.061Z,99.90
2023-01-02T01:29:39.077Z,99.90
2023-01-02T01:32:06.191Z,99.90
2023-01-02T01:34:33.752Z,99.90
2023-01-02T01:37:01.311Z,99.90
2023-01-02T01:39:28.837Z,99.90
2023-01-02T01:41:56.149Z,99.90
2023-01-02T01:44:51.432Z,99.90
2023-01-02T01:47:26.396Z,99.90
2023-01-02T01:50:05.747Z,99.90
2023-01-02T01:52:36.143Z,99.90
2023-01-02T01:55:18.523Z,99.90
2023-01-02T01:57:51.552Z,99.90
2023-01-02T02:00:18.999Z,99.90
2023-01-02T02:02:50.636Z,99.90
2023-01-02T02:05:25.194Z,99.90
2023-01-02T02:08:06.500Z,99.90
2023-01-02T02:10:33.534Z,99.90
2023-01-02T02:13:00.786Z,99.90
2023-01-02T02:15:37.986Z,99.90
2023-01-02T02:18:13.945Z,99.90
2023-01-02T02:20:43.976Z,99.90
2023-01-02T02:23:51.817Z,99.90
2023-01-02T02:26:56.379Z,99.90
2023-01-02T02:30:02.407Z,99.90
2023-01-02T02:32:51.974Z,99.90
2023-01-02T02:35:49.242Z,99.90
2023-01-02T02:38:23.998Z,99.90
2023-01-02T02:41:12.673Z,99.90
2023-01-02T02:44:04.400Z,99.90
2023-01-02T02:46:42.273Z,99.90
2023-01-02T02:49:34.449Z,99.90
2023-01-02T02:52:26.843Z,99.90
2023-01-02T02:55:10.256Z,99.90
2023-01-02T02:57:39.939Z,99.90
2023-01-02T03:00:10.402Z,99.90
2023-01-02T03:02:37.793Z,99.90
2023-01-02T03:05:10.169Z,99.90
2023-01-02T03:07:59.033Z,99.90
2023-01-02T03:10:39.559Z,99.90
2023-01-02T03:13:06.568Z,99.90
2023-01-02T03:15:42.575Z,99.90
2023-01-02T03:18:25.638Z,99.90
2023-01-02T03:21:10.015Z,99.90
2023-01-02T03:23:47.525Z,99.90
2023-01-02T03:26:18.181Z,99.90
2023-01-02T03:28:48.782Z,99.90
2023-01-02T03:31:20.058Z,99.90
2023-01-02T03:33:53.208Z,99.90
2023-01-02T03:36:26.253Z,99.90
2023-01-02T03:38:59.559Z,99.90
2023-01-02T03:41:36.474Z,99.90
2023-01-02T03:44:06.232Z,99.90
2023-01-02T03:46:53.151Z,99.90
2023-01-02T03:49:29.705Z,99.90
2023-01-02T03:51:56.807Z,99.90
2023-01-02T03:54:24.125Z,99.90
2023-01-02T03:56:57.078Z,99.90
2023-01-02T03:59:55.343Z,99.90
2023-01-02T04:02:34.348Z,99.90
2023-01-02T04:05:07.184Z,99.90
2023-01-02T04:08:01.558Z,99.90
2023-01-02T04:10:30.590Z,99.90
2023-01-02T04:13:02.925Z,99.90
2023-01-02T04:15:34.021Z,99.90
2023-01-02T04:18:05.956Z,99.90
2023-01-02T04:20:38.705Z,99.90
2023-01-02T04:23:10.790Z,99.90
2023-01-02T04:25:45.225Z,99.90
2023-01-02T04:28:27.540Z,99.90
2023-01-02T04:31:12.120Z,99.90
2023-01-02T04:33:45.319Z,99.90
2023-01-02T04:36:15.075Z,99.90
2023-01-02T04:38:43.319Z,99.90
2023-01-02T04:41:13.458Z,99.90
2023-01-02T04:43:40.647Z,99.90
2023-01-02T04:46:07.816Z,99.90
2023-01-02T04:48:35.085Z,99.90
2023-01-02T04:51:02.143Z,99.90
2023-01-02T04:53:29.171Z,99.90
2023-01-02T04:55:57.511Z,99.90
2023-01-02T04:58:24.646Z,99.90
2023-01-02T05:00:52.027Z,99.90
2023-01-02T05:03:19.160Z,99.90
2023-01-02T05:05:46.597Z,99.90
2023-01-02T05:08:16.359Z,99.90
2023-01-02T05:10:43.717Z,99.90
2023-01-02T05:13:10.735Z,99.90
2023-01-02T05:15:42.661Z,99.90
2023-01-02T05:18:09.775Z,99.90
2023-01-02T05:20:36.930Z,99.90
2023-01-02T05:23:22.423Z,99.90
2023-01-02T05:26:08.301Z,99.90
2023-01-02T05:28:38.792Z,99.90
2023-01-02T05:31:06.107Z,99.90
2023-01-02T05:33:33.121Z,99.90
2023-01-02T05:36:00.276Z,99.90
2023-01-02T05:38:27.380Z,99.90
2023-01-02T05:41:05.720Z,99.90
2023-01-02T05:43:34.607Z,99.90
2023-01-02T05:46:13.427Z,99.90
2023-01-02T05:48:41.206Z,99.90
2023-01-02T05:51:10.958Z,99.90
2023-01-02T05:53:38.793Z,99.90
2023-01-02T05:56:10.106Z,99.90
2023-01-02T05:58:40.044Z,99.90
2023-01-02T06:01:13.197Z,99.90
2023-01-02T06:03:40.775Z,99.90
2023-01-02T06:06:10.251Z,99.90
2023-01-02T06:08:37.590Z,99.90
2023-01-02T06:11:05.715Z,99.90
2023-01-02T06:13:34.955Z,99.90
2023-01-02T06:16:03.430Z,99.90
2023-01-02T06:18:32.293Z,99.90
2023-01-02T06:21:09.709Z,99.90
2023-01-02T06:23:37.127Z,99.90
2023-01-02T06:26:09.518Z,99.90
2023-01-02T06:28:37.022Z,99.90
2023-01-02T06:31:14.578Z,99.90
2023-01-02T06:33:42.467Z,99.90
2023-01-02T06:36:13.802Z,99.90
2023-01-02T06:38:41.325Z,99.90
2023-01-02T06:41:09.951Z,99.90
2023-01-02T06:43:42.039Z,99.90
2023-01-02T06:46:11.064Z,99.90
2023-01-02T06:48:39.634Z,99.90
2023-01-02T06:51:08.211Z,99.90
2023-01-02T06:53:36.838Z,99.90
2023-01-02T06:56:05.004Z,99.90
2023-01-02T06:58:34.198Z,99.90
2023-01-02T07:01:09.692Z,99.90
2023-01-02T07:03:37.308Z,99.90
2023-01-02T07:06:09.436Z,99.90
2023-01-02T07:08:37.229Z,99.90
2023-01-02T07:11:11.302Z,99.90
2023-01-02T07:13:39.904Z,99.90
2023-01-02T07:16:09.332Z,99.90
2023-01-02T07:18:37.704Z,99.90
2023-01-02T07:21:05.905Z,99.90
2023-01-02T07:23:33.467Z,99.90
2023-01-02T07:26:02.304Z,99.90
2023-01-02T07:28:30.043Z,99.90
2023-01-02T07:30:58.694Z,99.90
2023-01-02T07:33:26.504Z,99.90
2023-01-02T07:36:07.332Z,99.90
2023-01-02T07:38:35.246Z,99.90
2023-01-02T07:41:02.532Z,99.90
2023-01-02T07:43:29.578Z,99.90
2023-01-02T07:46:04.069Z,99.90
2023-01-02T07:48:31.351Z,99.90
2023-01-02T07:51:02.852Z,99.90
2023-01-02T07:53:30.841Z,99.90
2023-01-02T07:55:59.633Z,99.90
2023-01-02T07:58:27.055Z,99.90
2023-01-02T08:00:59.724Z,99.90
2023-01-02T08:03:28.790Z,99.90
2023-01-02T08:06:01.912Z,99.90
2023-01-02T08:08:29.182Z,99.90
2023-01-02T08:10:56.205Z,99.90
2023-01-02T08:13:23.346Z,99.90
2023-01-02T08:15:50.674Z,99.90
2023-01-02T08:18:17.608Z,99.90
2023-01-02T08:20:44.623Z,99.90
2023-01-02T08:23:11.799Z,99.90
2023-01-02T08:25:39.022Z,99.90
2023-01-02T08:28:06.312Z,99.90
2023-01-02T08:30:33.756Z,99.90
2023-01-02T08:33:01.083Z,99.90
2023-01-02T08:35:37.878Z,99.90
2023-01-02T08:38:06.044Z,99.90
2023-01-02T08:40:33.277Z,99.90
2023-01-02T08:43:00.656Z,99.90
2023-01-02T08:45:27.949Z,99.90
2023-01-02T08:47:55.053Z,99.90
2023-01-02T08:50:22.168Z,99.90
2023-01-02T08:52:49.458Z,99.90
2023-01-02T08:55:16.641Z,99.90
2023-01-02T08:57:43.855Z,99.90
2023-01-02T09:00:12.330Z,99.90
2023-01-02T09:02:39.467Z,99.90
2023-01-02T09:05:07.080Z,99.90
2023-01-02T09:07:34.141Z,99.90
2023-01-02T09:10:01.280Z,99.90
2023-01-02T09:12:28.461Z,99.90
2023-01-02T09:14:55.858Z,99.90
2023-01-02T09:17:23.013Z,99.90
2023-01-02T09:19:50.313Z,99.90
2023-01-02T09:22:17.538Z,99.90
2023-01-02T09:24:44.739Z,99.90
2023-01-02T09:27:11.820Z,99.90
2023-01-02T09:29:38.973Z,99.90
2023-01-02T09:32:06.076Z,99.90
2023-01-02T09:34:33.476Z,99.90
2023-01-02T09:37:00.719Z,99.90
2023-01-02T09:39:32.489Z,99.90
2023-01-02T09:42:00.952Z,99.90
2023-01-02T09:44:49.635Z,99.90
2023-01-02T09:47:29.561Z,99.90
2023-01-02T09:50:06.236Z,99.90
2023-01-02T09:52:40.203Z,99.90
2023-01-02T09:55:18.759Z,99.90
2023-01-02T09:57:58.696Z,99.90
2023-01-02T10:00:29.852Z,99.90
2023-01-02T10:03:07.553Z,99.90
2023-01-02T10:05:41.470Z,99.90
2023-01-02T10:08:32.693Z,99.90
2023-01-02T10:11:18.734Z,99.90
2023-01-02T10:14:36.121Z,99.90
2023-01-02T10:17:07.336Z,99.90
2023-01-02T10:20:01.889Z,99.90
2023-01-02T10:22:52.652Z,99.90
2023-01-02T10:25:28.265Z,99.90
2023-01-02T10:28:06.948Z,99.90
2023-01-02T10:30:43.712Z,99.90
2023-01-02T10:33:37.778Z,99.90
2023-01-02T10:36:05.606Z,99.90
2023-01-02T10:38:38.568Z,99.90
2023-01-02T10:41:06.961Z,99.90
2023-01-02T10:43:35.470Z,99.90
2023-01-02T10:46:03.997Z,99.90
2023-01-02T10:48:37.332Z,99.90
2023-01-02T10:51:07.690Z,99.90
2023-01-02T10:53:37.587Z,99.90
2023-01-02T10:56:18.427Z,99.90
2023-01-02T10:58:48.421Z,99.90
2023-01-02T11:01:19.253Z,99.90
2023-01-02T11:03:47.647Z,99.90
2023-01-02T11:06:28.289Z,99.90
2023-01-02T11:09:26.362Z,99.90
2023-01-02T11:11:56.387Z,99.90
2023-01-02T11:14:29.072Z,99.90
2023-01-02T11:17:04.852Z,99.90
2023-01-02T11:19:38.944Z,99.90
2023-01-02T11:22:06.151Z,99.90
2023-01-02T11:24:35.404Z,99.90
2023-01-02T11:27:05.956Z,99.90
2023-01-02T11:29:37.079Z,99.90
2023-01-02T11:32:05.394Z,99.90
2023-01-02T11:34:53.397Z,99.90
2023-01-02T11:37:20.829Z,99.90
2023-01-02T11:40:27.135Z,99.90
2023-01-02T11:43:15.887Z,99.90
2023-01-02T11:45:44.262Z,99.90
2023-01-02T11:48:18.900Z,99.90
2023-01-02T11:50:47.012Z,99.90
2023-01-02T11:53:14.131Z,99.90
2023-01-02T11:55:55.713Z,99.90
2023-01-02T11:58:50.858Z,99.90
2023-01-02T12:01:22.513Z,99.90
2023-01-02T12:03:49.887Z,99.30
2023-01-02T12:06:36.290Z,98.00
2023-01-02T12:09:11.577Z,98.40
2023-01-02T12:11:57.311Z,98.70
2023-01-02T12:14:54.509Z,98.90
2023-01-02T12:17:44.196Z,97.90
2023-01-02T12:20:42.991Z,98.30
2023-01-02T12:23:18.912Z,97.00
2023-01-02T12:26:09.102Z,96.30
2023-01-02T12:29:08.027Z,96.70
2023-01-02T12:31:53.115Z,96.50
2023-01-02T12:34:25.877Z,95.20
2023-01-02T12:37:20.948Z,94.80
2023-01-02T12:40:06.743Z,94.90
2023-01-02T12:42:55.048Z,95.80
2023-01-02T12:45:42.212Z,94.60
2023-01-02T12:48:18.447Z,94.80
2023-01-02T12:51:10.142Z,93.70
2023-01-02T12:54:20.143Z,94.20
2023-01-02T12:57:05.741Z,94.50
2023-01-02T12:59:58.563Z,93.90
2023-01-02T13:03:03.291Z,93.50
2023-01-02T13:05:43.892Z,93.60
2023-01-02T13:08:26.748Z,93.50
2023-01-02T13:10:56.183Z,93.40
2023-01-02T13:13:30.642Z,93.10
2023-01-02T13:16:03.757Z,94.40
2023-01-02T13:19:00.735Z,94.10
2023-01-02T13:21:43.432Z,93.40
2023-01-02T13:24:15.722Z,93.80
2023-01-02T13:26:43.359Z,94.60
2023-01-02T13:29:10.270Z,94.10
2023-01-02T13:31:48.198Z,94.50
2023-01-02T13:34:25.512Z,94.30
2023-01-02T13:37:14.278Z,94.60
2023-01-02T13:39:41.566Z,94.60
2023-01-02T13:42:50.299Z,95.00
2023-01-02T13:45:24.868Z,94.70
2023-01-02T13:47:56.645Z,95.20
2023-01-02T13:50:35.568Z,95.40
2023-01-02T13:53:11.807Z,94.60
2023-01-02T13:55:41.736Z,93.40
2023-01-02T13:58:20.685Z,95.00
2023-01-02T14:00:56.601Z,94.90
2023-01-02T14:03:24.006Z,94.90
2023-01-02T14:05:59.382Z,94.70
2023-01-02T14:08:38.642Z,95.20
2023-01-02T14:11:05.779Z,96.20
2023-01-02T14:13:50.241Z,95.60
2023-01-02T14:16:23.513Z,95.90
2023-01-02T14:19:15.458Z,96.00
2023-01-02T14:21:51.125Z,95.90
2023-01-02T14:24:34.537Z,96.30
2023-01-02T14:27:15.077Z,96.10
2023-01-02T14:29:54.974Z,96.70
2023-01-02T14:32:40.765Z,96.30
2023-01-02T14:35:29.894Z,96.50
2023-01-02T14:38:10.392Z,96.60
2023-01-02T14:40:43.024Z,96.90
2023-01-02T14:43:30.555Z,96.40
2023-01-02T14:46:05.188Z,96.60
2023-01-02T14:48:51.932Z,96.70
2023-01-02T14:51:29.753Z,97.20
2023-01-02T14:54:12.132Z,96.90
2023-01-02T14:56:42.237Z,97.40
2023-01-02T14:59:18.053Z,97.40
2023-01-02T15:01:52.302Z,97.30
2023-01-02T15:04:19.764Z,97.00
2023-01-02T15:06:52.031Z,97.50
2023-01-02T15:09:19.067Z,97.40
2023-01-02T15:12:16.107Z,97.20
2023-01-02T15:14:44.025Z,97.90
2023-01-02T15:17:19.904Z,98.00
2023-01-02T15:19:48.103Z,98.40
2023-01-02T15:22:27.044Z,97.90
2023-01-02T15:24:54.974Z,98.20
2023-01-02T15:27:26.159Z,98.20
2023-01-02T15:29:56.156Z,98.70
2023-01-02T15:32:24.634Z,98.60
2023-01-02T15:34:52.592Z,98.70
2023-01-02T15:37:22.034Z,99.20
2023-01-02T15:39:52.658Z,99.50
2023-01-02T15:42:46.736Z,99.70
2023-01-02T15:45:16.515Z,99.90
2023-01-02T15:47:48.301Z,99.90
2023-01-02T15:50:21.859Z,99.90
2023-01-02T15:52:54.615Z,99.90
2023-01-02T15:55:21.732Z,99.90
2023-01-02T15:57:54.049Z,99.90
2023-01-02T16:00:40.231Z,99.90
2023-01-02T16:03:08.841Z,99.90
2023-01-02T16:06:07.185Z,99.90
2023-01-02T16:08:38.033Z,99.90
2023-01-02T16:11:05.560Z,99.90
2023-01-02T16:13:54.782Z,99.90
2023-01-02T16:16:22.790Z,99.90
2023-01-02T16:18:58.274Z,99.90
2023-01-02T16:21:31.072Z,99.90
2023-01-02T16:23:59.112Z,99.90
2023-01-02T16:26:33.080Z,99.90
2023-01-02T16:29:00.188Z,99.90
2023-01-02T16:31:29.137Z,99.90
2023-01-02T16:34:13.353Z,99.90
2023-01-02T16:36:40.676Z,99.90
2023-01-02T16:39:40.398Z,99.90
2023-01-02T16:42:26.294Z,99.90
2023-01-02T16:44:56.897Z,99.90
2023-01-02T16:47:39.094Z,99.90
2023-01-02T16:50:11.380Z,99.90
2023-01-02T16:52:38.414Z,99.90
2023-01-02T16:55:06.262Z,99.90
2023-01-02T16:57:33.431Z,99.90
2023-01-02T17:00:00.499Z,99.90
2023-01-02T17:02:27.722Z,99.90
2023-01-02T17:04:55.174Z,99.90
2023-01-02T17:07:22.815Z,99.90
2023-01-02T17:09:50.043Z,99.90
2023-01-02T17:12:17.135Z,99.90
2023-01-02T17:14:44.407Z,99.90
2023-01-02T17:17:11.502Z,99.90
2023-01-02T17:19:38.631Z,99.90
2023-01-02T17:22:05.691Z,99.90
2023-01-02T17:24:32.765Z,99.90
2023-01-02T17:26:59.932Z,99.90
2023-01-02T17:29:29.929Z,99.90
2023-01-02T17:31:57.096Z,99.90
2023-01-02T17:34:24.154Z,99.90
2023-01-02T17:36:51.786Z,99.90
2023-01-02T17:39:19.111Z,99.90
2023-01-02T17:41:46.423Z,99.90
2023-01-02T17:44:13.393Z,99.90
2023-01-02T17:49:28.378Z,99.90
2023-01-02T17:51:55.405Z,99.90
2023-01-02T17:54:22.973Z,99.90
2023-01-02T17:56:50.102Z,99.90
2023-01-02T17:59:19.638Z,99.90
2023-01-02T18:01:48.031Z,99.90
2023-01-02T18:04:15.422Z,99.90
2023-01-02T18:06:42.725Z,99.90
2023-01-02T18:09:10.097Z,99.90
2023-01-02T18:11:37.397Z,99.90
2023-01-02T18:14:14.092Z,99.90
2023-01-02T18:16:42.276Z,99.90
2023-01-02T18:19:23.463Z,99.90
2023-01-02T18:21:51.139Z,99.90
2023-01-02T18:24:26.501Z,99.90
2023-01-02T18:27:19.864Z,99.90
2023-01-02T18:29:54.277Z,99.90
2023-01-02T18:32:32.494Z,99.90
2023-01-02T18:35:06.919Z,99.90
2023-01-02T18:37:47.614Z,99.90
2023-01-02T18:40:27.768Z,99.90
2023-01-02T18:43:11.387Z,99.90
2023-01-02T18:45:38.673Z,99.90
2023-01-02T18:48:18.854Z,99.90
2023-01-02T18:50:55.953Z,99.90
2023-01-02T18:53:26.969Z,99.90
2023-01-02T18:56:00.071Z,99.90
2023-01-02T18:58:41.662Z,99.90
2023-01-02T19:01:29.075Z,99.90
2023-01-02T19:04:26.794Z,99.90
2023-01-02T19:06:57.783Z,99.90
2023-01-02T19:09:34.512Z,99.90
2023-01-02T19:12:32.073Z,99.90
2023-01-02T19:15:01.176Z,99.90
2023-01-02T19:17:32.502Z,99.90
2023-01-02T19:20:00.251Z,99.90
2023-01-02T19:22:33.977Z,99.90
2023-01-02T19:25:18.774Z,99.90
2023-01-02T19:27:46.190Z,99.90
2023-01-02T19:30:39.965Z,99.90
2023-01-02T19:33:30.612Z,99.90
2023-01-02T19:36:01.111Z,99.90
2023-01-02T19:38:30.824Z,99.90
2023-01-02T19:40:58.986Z,99.90
2023-01-02T19:43:26.605Z,99.90
2023-01-02T19:45:54.135Z,99.90
2023-01-02T19:48:21.597Z,99.90
2023-01-02T19:50:48.829Z,99.90
2023-01-02T19:53:16.002Z,99.90
2023-01-02T19:55:43.283Z,99.90
2023-01-02T19:58:10.552Z,99.90
2023-01-02T20:00:38.320Z,99.90
2023-01-02T20:03:05.685Z,99.90
2023-01-02T20:05:33.470Z,99.90
2023-01-02T20:08:02.517Z,99.90
2023-01-02T20:10:29.543Z,99.90
2023-01-02T20:12:56.588Z,99.90
2023-01-02T20:15:25.908Z,99.90
2023-01-02T20:17:53.799Z,99.90
2023-01-02T20:20:23.819Z,99.90
2023-01-02T20:22:52.236Z,99.90
2023-01-02T20:25:24.309Z,99.90
2023-01-02T20:27:56.071Z,99.90
2023-01-02T20:30:24.955Z,99.90
2023-01-02T20:32:54.270Z,99.90
2023-01-02T20:35:22.603Z,99.90
2023-01-02T20:37:50.247Z,99.90
2023-01-02T20:40:17.923Z,99.90
2023-01-02T20:42:45.415Z,99.90
2023-01-02T20:45:13.294Z,99.90
2023-01-02T20:47:40.522Z,99.90
2023-01-02T20:50:08.145Z,99.90
2023-01-02T20:52:35.747Z,99.90
2023-01-02T20:55:03.214Z,99.90
2023-01-02T20:57:30.878Z,99.90
2023-01-02T20:59:58.672Z,99.90
2023-01-02T21:02:26.241Z,99.90
2023-01-02T21:04:53.871Z,99.90
2023-01-02T21:07:21.382Z,99.90
2023-01-02T21:09:48.784Z,99.90
2023-01-02T21:12:34.226Z,99.90
2023-01-02T21:15:01.529Z,99.90
2023-01-02T21:17:29.198Z,99.90
2023-01-02T21:19:56.478Z,99.90
2023-01-02T21:22:24.673Z,99.90
2023-01-02T21:24:52.350Z,99.90
2023-01-02T21:27:20.285Z,99.90
2023-01-02T21:29:47.931Z,99.90
2023-01-02T21:32:15.694Z,99.90
2023-01-02T21:34:42.876Z,99.90
2023-01-02T21:37:10.409Z,99.90
2023-01-02T21:39:37.924Z,99.90
2023-01-02T21:42:17.615Z,99.90
2023-01-02T21:44:49.644Z,99.90
2023-01-02T21:47:18.696Z,99.90
2023-01-02T21:49:46.117Z,99.90
2023-01-02T21:52:13.658Z,99.90
2023-01-02T21:54:40.661Z,99.90
2023-01-02T21:57:08.129Z,99.90
2023-01-02T21:59:35.558Z,99.90
2023-01-02T22:02:04.685Z,99.90
2023-01-02T22:04:33.459Z,99.90
2023-01-02T22:07:30.651Z,99.90
2023-01-02T22:09:48.597Z,99.90
2023-01-02T22:12:16.100Z,99.90
2023-01-02T22:14:43.436Z,99.90
2023-01-02T22:17:11.438Z,99.90
2023-01-02T22:19:38.566Z,99.90
2023-01-02T22:22:05.798Z,99.90
2023-01-02T22:24:34.769Z,99.90
2023-01-02T22:27:06.957Z,99.90
2023-01-02T22:30:09.536Z,99.90
2023-01-02T22:32:23.567Z,99.90
2023-01-02T22:34:51.433Z,99.90
2023-01-02T22:37:22.604Z,99.90
2023-01-02T22:39:51.101Z,99.90
2023-01-02T22:45:33.655Z,99.90
2023-01-02T22:48:04.538Z,99.90
2023-01-02T22:50:40.760Z,99.90
2023-01-02T22:53:32.106Z,99.90
2023-01-02T22:56:01.272Z,99.90
2023-01-02T22:58:28.557Z,99.90
2023-01-02T23:01:07.429Z,99.90
2023-01-02T23:03:40.842Z,99.90
2023-01-02T23:06:08.453Z,99.90
2023-01-02T23:08:36.202Z,99.90
2023-01-02T23:11:04.902Z,99.90
2023-01-02T23:13:34.435Z,99.90
2023-01-02T23:16:20.737Z,99.90
2023-01-02T23:19:06.952Z,99.90
2023-01-02T23:21:36.182Z,99.90
2023-01-02T23:24:04.530Z,99.90
2023-01-02T23:26:38.724Z,99.90
2023-01-02T23:29:08.366Z,99.90
2023-01-02T23:31:38.132Z,99.90
2023-01-02T23:34:05.971Z,99.90
2023-01-02T23:36:33.497Z,99.90
2023-01-02T23:39:01.075Z,99.90
2023-01-02T23:41:28.314Z,99.90
2023-01-02T23:43:55.406Z,99.90
2023-01-02T23:46:22.883Z,99.90
2023-01-02T23:48:50.086Z,99.90
2023-01-02T23:51:18.477Z,99.90
2023-01-02T23:53:45.831Z,99.90
2023-01-02T23:56:36.809Z,99.90
2023-01-02T23:59:07.400Z,99.90
